sensor_id;sensor_type;location;lat;lon;timestamp;temperature;humidity
4366;DHT22;2196;47.422;9.656;2022-08-19T00:00:33;18.20;99.90
4366;DHT22;2196;47.422;9.656;2022-08-19T00:03:02;18.20;99.90
4366;DHT22;2196;47.422;9.656;2022-08-19T00:05:29;18.20;99.90
4366;DHT22;2196;47.422;9.656;2022-08-19T00:07:57;18.10;99.90
4366;DHT22;2196;47.422;9.656;2022-08-19T00:10:25;18.20;99.90
4366;DHT22;2196;47.422;9.656;2022-08-19T00:12:52;18.20;99.90
4366;DHT22;2196;47.422;9.656;2022-08-19T00:15:21;18.20;99.90
4366;DHT22;2196;47.422;9.656;2022-08-19T00:17:48;18.20;99.90
4366;DHT22;2196;47.422;9.656;2022-08-19T00:20:18;18.20;99.90
4366;DHT22;2196;47.422;9.656;2022-08-19T00:22:46;18.20;99.90
4366;DHT22;2196;47.422;9.656;2022-08-19T00:25:14;18.20;99.90
4366;DHT22;2196;47.422;9.656;2022-08-19T00:27:43;18.20;99.90
4366;DHT22;2196;47.422;9.656;2022-08-19T00:30:11;18.20;99.90
4366;DHT22;2196;47.422;9.656;2022-08-19T00:32:39;18.20;99.90
4366;DHT22;2196;47.422;9.656;2022-08-19T00:35:07;18.20;99.90
4366;DHT22;2196;47.422;9.656;2022-08-19T00:37:34;18.20;99.90
4366;DHT22;2196;47.422;9.656;2022-08-19T00:40:03;18.20;99.90
4366;DHT22;2196;47.422;9.656;2022-08-19T00:42:31;18.20;99.90
4366;DHT22;2196;47.422;9.656;2022-08-19T00:45:00;18.20;99.90
4366;DHT22;2196;47.422;9.656;2022-08-19T00:47:27;18.20;99.90
4366;DHT22;2196;47.422;9.656;2022-08-19T00:49:56;18.10;99.90
4366;DHT22;2196;47.422;9.656;2022-08-19T00:52:27;18.10;99.90
4366;DHT22;2196;47.422;9.656;2022-08-19T00:54:56;18.10;99.90
4366;DHT22;2196;47.422;9.656;2022-08-19T00:57:29;18.10;99.90
4366;DHT22;2196;47.422;9.656;2022-08-19T00:59:59;18.10;99.90
4366;DHT22;2196;47.422;9.656;2022-08-19T01:02:29;18.10;99.90
4366;DHT22;2196;47.422;9.656;2022-08-19T01:04:56;18.10;99.90
4366;DHT22;2196;47.422;9.656;2022-08-19T01:07:23;18.10;99.90
4366;DHT22;2196;47.422;9.656;2022-08-19T01:09:51;18.10;99.90
4366;DHT22;2196;47.422;9.656;2022-08-19T01:12:18;18.10;99.90
4366;DHT22;2196;47.422;9.656;2022-08-19T01:14:45;18.10;99.90
4366;DHT22;2196;47.422;9.656;2022-08-19T01:17:15;18.10;99.90
4366;DHT22;2196;47.422;9.656;2022-08-19T01:19:43;18.10;99.90
4366;DHT22;2196;47.422;9.656;2022-08-19T01:22:16;18.10;99.90
4366;DHT22;2196;47.422;9.656;2022-08-19T01:24:46;18.10;99.90
4366;DHT22;2196;47.422;9.656;2022-08-19T01:27:13;18.10;99.90
4366;DHT22;2196;47.422;9.656;2022-08-19T01:29:42;18.10;99.90
4366;DHT22;2196;47.422;9.656;2022-08-19T01:32:14;18.10;99.90
4366;DHT22;2196;47.422;9.656;2022-08-19T01:34:43;18.10;99.90
4366;DHT22;2196;47.422;9.656;2022-08-19T01:37:13;18.10;99.90
4366;DHT22;2196;47.422;9.656;2022-08-19T01:39:42;18.10;99.90
4366;DHT22;2196;47.422;9.656;2022-08-19T01:42:10;18.10;99.90
4366;DHT22;2196;47.422;9.656;2022-08-19T01:44:38;18.10;99.90
4366;DHT22;2196;47.422;9.656;2022-08-19T01:47:07;18.00;99.90
4366;DHT22;2196;47.422;9.656;2022-08-19T01:49:35;18.00;99.90
4366;DHT22;2196;47.422;9.656;2022-08-19T01:52:04;18.00;99.90
4366;DHT22;2196;47.422;9.656;2022-08-19T01:54:32;18.10;99.90
4366;DHT22;2196;47.422;9.656;2022-08-19T01:57:06;18.00;99.90
4366;DHT22;2196;47.422;9.656;2022-08-19T01:59:36;18.00;99.90
4366;DHT22;2196;47.422;9.656;2022-08-19T02:02:04;18.00;99.90
4366;DHT22;2196;47.422;9.656;2022-08-19T02:04:33;18.00;99.90
4366;DHT22;2196;47.422;9.656;2022-08-19T02:07:00;18.00;99.90
4366;DHT22;2196;47.422;9.656;2022-08-19T02:09:27;17.90;99.90
4366;DHT22;2196;47.422;9.656;2022-08-19T02:11:54;18.00;99.90
4366;DHT22;2196;47.422;9.656;2022-08-19T02:14:21;18.00;99.90
4366;DHT22;2196;47.422;9.656;2022-08-19T02:16:50;18.00;99.90
4366;DHT22;2196;47.422;9.656;2022-08-19T02:19:17;18.00;99.90
4366;DHT22;2196;47.422;9.656;2022-08-19T02:21:44;18.00;99.90
4366;DHT22;2196;47.422;9.656;2022-08-19T02:24:11;18.00;99.90
4366;DHT22;2196;47.422;9.656;2022-08-19T02:26:38;18.10;99.90
4366;DHT22;2196;47.422;9.656;2022-08-19T02:29:05;18.10;99.90
4366;DHT22;2196;47.422;9.656;2022-08-19T02:31:32;18.10;99.90
4366;DHT22;2196;47.422;9.656;2022-08-19T02:34:01;18.10;99.90
4366;DHT22;2196;47.422;9.656;2022-08-19T02:36:28;18.10;99.90
4366;DHT22;2196;47.422;9.656;2022-08-19T02:38:56;18.10;99.90
4366;DHT22;2196;47.422;9.656;2022-08-19T02:41:25;18.10;99.90
4366;DHT22;2196;47.422;9.656;2022-08-19T02:43:52;18.10;99.90
4366;DHT22;2196;47.422;9.656;2022-08-19T02:46:23;18.10;99.90
4366;DHT22;2196;47.422;9.656;2022-08-19T02:48:51;18.00;99.90
4366;DHT22;2196;47.422;9.656;2022-08-19T02:51:22;18.00;99.90
4366;DHT22;2196;47.422;9.656;2022-08-19T02:53:50;18.00;99.90
4366;DHT22;2196;47.422;9.656;2022-08-19T02:56:17;18.00;99.90
4366;DHT22;2196;47.422;9.656;2022-08-19T02:58:45;18.00;99.90
4366;DHT22;2196;47.422;9.656;2022-08-19T03:01:19;18.00;99.90
4366;DHT22;2196;47.422;9.656;2022-08-19T03:03:47;18.00;99.90
4366;DHT22;2196;47.422;9.656;2022-08-19T03:06:15;18.10;99.90
4366;DHT22;2196;47.422;9.656;2022-08-19T03:08:44;18.00;99.90
4366;DHT22;2196;47.422;9.656;2022-08-19T03:11:13;18.00;99.90
4366;DHT22;2196;47.422;9.656;2022-08-19T03:13:40;18.00;99.90
4366;DHT22;2196;47.422;9.656;2022-08-19T03:16:09;17.90;99.90
4366;DHT22;2196;47.422;9.656;2022-08-19T03:18:36;17.90;99.90
4366;DHT22;2196;47.422;9.656;2022-08-19T03:21:04;17.90;99.90
4366;DHT22;2196;47.422;9.656;2022-08-19T03:23:32;17.90;99.90
4366;DHT22;2196;47.422;9.656;2022-08-19T03:26:03;17.90;99.90
4366;DHT22;2196;47.422;9.656;2022-08-19T03:28:31;17.90;99.90
4366;DHT22;2196;47.422;9.656;2022-08-19T03:31:00;17.90;99.90
4366;DHT22;2196;47.422;9.656;2022-08-19T03:33:29;17.90;99.90
4366;DHT22;2196;47.422;9.656;2022-08-19T03:36:05;17.90;99.90
4366;DHT22;2196;47.422;9.656;2022-08-19T03:38:34;18.00;99.90
4366;DHT22;2196;47.422;9.656;2022-08-19T03:41:08;17.90;99.90
4366;DHT22;2196;47.422;9.656;2022-08-19T03:43:36;17.90;99.90
4366;DHT22;2196;47.422;9.656;2022-08-19T03:46:05;17.90;99.90
4366;DHT22;2196;47.422;9.656;2022-08-19T03:48:33;17.90;99.90
4366;DHT22;2196;47.422;9.656;2022-08-19T03:51:02;17.90;99.90
4366;DHT22;2196;47.422;9.656;2022-08-19T03:53:30;17.90;99.90
4366;DHT22;2196;47.422;9.656;2022-08-19T03:55:58;18.00;99.90
4366;DHT22;2196;47.422;9.656;2022-08-19T03:58:27;18.00;99.90
4366;DHT22;2196;47.422;9.656;2022-08-19T04:00:55;18.00;99.90
4366;DHT22;2196;47.422;9.656;2022-08-19T04:03:22;17.90;99.90
4366;DHT22;2196;47.422;9.656;2022-08-19T04:05:50;17.90;99.90
4366;DHT22;2196;47.422;9.656;2022-08-19T04:08:17;17.90;99.90
4366;DHT22;2196;47.422;9.656;2022-08-19T04:10:46;17.90;99.90
4366;DHT22;2196;47.422;9.656;2022-08-19T04:13:13;17.90;99.90
4366;DHT22;2196;47.422;9.656;2022-08-19T04:15:43;17.90;99.90
4366;DHT22;2196;47.422;9.656;2022-08-19T04:18:13;17.90;99.90
4366;DHT22;2196;47.422;9.656;2022-08-19T04:20:42;17.90;99.90
4366;DHT22;2196;47.422;9.656;2022-08-19T04:23:10;17.90;99.90
4366;DHT22;2196;47.422;9.656;2022-08-19T04:25:39;17.80;99.90
4366;DHT22;2196;47.422;9.656;2022-08-19T04:28:08;17.80;99.90
4366;DHT22;2196;47.422;9.656;2022-08-19T04:30:43;17.90;99.90
4366;DHT22;2196;47.422;9.656;2022-08-19T04:33:10;17.90;99.90
4366;DHT22;2196;47.422;9.656;2022-08-19T04:35:40;17.80;99.90
4366;DHT22;2196;47.422;9.656;2022-08-19T04:38:10;17.80;99.90
4366;DHT22;2196;47.422;9.656;2022-08-19T04:40:41;17.80;99.90
4366;DHT22;2196;47.422;9.656;2022-08-19T04:43:26;17.80;99.90
4366;DHT22;2196;47.422;9.656;2022-08-19T04:45:55;17.80;99.90
4366;DHT22;2196;47.422;9.656;2022-08-19T04:48:22;17.80;99.90
4366;DHT22;2196;47.422;9.656;2022-08-19T04:50:52;17.80;99.90
4366;DHT22;2196;47.422;9.656;2022-08-19T04:53:23;17.90;99.90
4366;DHT22;2196;47.422;9.656;2022-08-19T04:55:51;17.90;99.90
4366;DHT22;2196;47.422;9.656;2022-08-19T04:58:18;17.90;99.90
4366;DHT22;2196;47.422;9.656;2022-08-19T05:00:45;17.90;99.90
4366;DHT22;2196;47.422;9.656;2022-08-19T05:03:14;17.90;99.90
4366;DHT22;2196;47.422;9.656;2022-08-19T05:05:43;17.90;99.90
4366;DHT22;2196;47.422;9.656;2022-08-19T05:08:11;17.90;99.90
4366;DHT22;2196;47.422;9.656;2022-08-19T05:10:39;17.90;99.90
4366;DHT22;2196;47.422;9.656;2022-08-19T05:13:08;17.90;99.90
4366;DHT22;2196;47.422;9.656;2022-08-19T05:15:36;17.90;99.90
4366;DHT22;2196;47.422;9.656;2022-08-19T05:18:03;17.90;99.90
4366;DHT22;2196;47.422;9.656;2022-08-19T05:20:49;17.90;99.90
4366;DHT22;2196;47.422;9.656;2022-08-19T05:23:33;17.90;99.90
4366;DHT22;2196;47.422;9.656;2022-08-19T05:26:00;17.90;99.90
4366;DHT22;2196;47.422;9.656;2022-08-19T05:28:28;17.90;99.90
4366;DHT22;2196;47.422;9.656;2022-08-19T05:30:55;17.90;99.90
4366;DHT22;2196;47.422;9.656;2022-08-19T05:33:22;17.90;99.90
4366;DHT22;2196;47.422;9.656;2022-08-19T05:35:51;17.90;99.90
4366;DHT22;2196;47.422;9.656;2022-08-19T05:38:18;17.90;99.90
4366;DHT22;2196;47.422;9.656;2022-08-19T05:40:45;17.90;99.90
4366;DHT22;2196;47.422;9.656;2022-08-19T05:43:14;17.90;99.90
4366;DHT22;2196;47.422;9.656;2022-08-19T05:45:42;17.90;99.90
4366;DHT22;2196;47.422;9.656;2022-08-19T05:48:11;17.90;99.90
4366;DHT22;2196;47.422;9.656;2022-08-19T05:50:39;17.90;99.90
4366;DHT22;2196;47.422;9.656;2022-08-19T05:53:08;17.90;99.90
4366;DHT22;2196;47.422;9.656;2022-08-19T05:55:35;17.90;99.90
4366;DHT22;2196;47.422;9.656;2022-08-19T05:58:05;17.90;99.90
4366;DHT22;2196;47.422;9.656;2022-08-19T06:00:33;17.90;99.90
4366;DHT22;2196;47.422;9.656;2022-08-19T06:03:01;17.90;99.90
4366;DHT22;2196;47.422;9.656;2022-08-19T06:05:32;17.90;99.90
4366;DHT22;2196;47.422;9.656;2022-08-19T06:07:59;17.90;99.90
4366;DHT22;2196;47.422;9.656;2022-08-19T06:10:28;17.80;99.90
4366;DHT22;2196;47.422;9.656;2022-08-19T06:12:55;17.80;99.90
4366;DHT22;2196;47.422;9.656;2022-08-19T06:15:22;17.80;99.90
4366;DHT22;2196;47.422;9.656;2022-08-19T06:17:51;17.80;99.90
4366;DHT22;2196;47.422;9.656;2022-08-19T06:20:18;17.80;99.90
4366;DHT22;2196;47.422;9.656;2022-08-19T06:22:48;17.90;99.90
4366;DHT22;2196;47.422;9.656;2022-08-19T06:25:16;17.80;99.90
4366;DHT22;2196;47.422;9.656;2022-08-19T06:27:45;17.80;99.90
4366;DHT22;2196;47.422;9.656;2022-08-19T06:30:12;17.80;99.90
4366;DHT22;2196;47.422;9.656;2022-08-19T06:32:39;17.80;99.90
4366;DHT22;2196;47.422;9.656;2022-08-19T06:35:07;17.80;99.90
4366;DHT22;2196;47.422;9.656;2022-08-19T06:37:34;17.80;99.90
4366;DHT22;2196;47.422;9.656;2022-08-19T06:40:03;17.80;99.90
4366;DHT22;2196;47.422;9.656;2022-08-19T06:42:31;17.70;99.90
4366;DHT22;2196;47.422;9.656;2022-08-19T06:45:00;17.70;99.90
4366;DHT22;2196;47.422;9.656;2022-08-19T06:47:29;17.80;99.90
4366;DHT22;2196;47.422;9.656;2022-08-19T06:49:59;17.80;99.90
4366;DHT22;2196;47.422;9.656;2022-08-19T06:52:28;17.70;99.90
4366;DHT22;2196;47.422;9.656;2022-08-19T06:54:55;17.70;99.90
4366;DHT22;2196;47.422;9.656;2022-08-19T06:57:23;17.60;99.90
4366;DHT22;2196;47.422;9.656;2022-08-19T06:59:50;17.60;99.90
4366;DHT22;2196;47.422;9.656;2022-08-19T07:02:19;17.60;99.90
4366;DHT22;2196;47.422;9.656;2022-08-19T07:04:47;17.60;99.90
4366;DHT22;2196;47.422;9.656;2022-08-19T07:07:14;17.60;99.90
4366;DHT22;2196;47.422;9.656;2022-08-19T07:09:43;17.60;99.90
4366;DHT22;2196;47.422;9.656;2022-08-19T07:12:12;17.60;99.90
4366;DHT22;2196;47.422;9.656;2022-08-19T07:14:41;17.50;99.90
4366;DHT22;2196;47.422;9.656;2022-08-19T07:17:12;17.50;99.90
4366;DHT22;2196;47.422;9.656;2022-08-19T07:19:41;17.50;99.90
4366;DHT22;2196;47.422;9.656;2022-08-19T07:22:09;17.40;99.90
4366;DHT22;2196;47.422;9.656;2022-08-19T07:24:37;17.40;99.90
4366;DHT22;2196;47.422;9.656;2022-08-19T07:27:05;17.30;99.90
4366;DHT22;2196;47.422;9.656;2022-08-19T07:29:34;17.30;99.90
4366;DHT22;2196;47.422;9.656;2022-08-19T07:32:03;17.30;99.90
4366;DHT22;2196;47.422;9.656;2022-08-19T07:34:33;17.30;99.90
4366;DHT22;2196;47.422;9.656;2022-08-19T07:37:05;17.30;99.90
4366;DHT22;2196;47.422;9.656;2022-08-19T07:39:34;17.30;99.90
4366;DHT22;2196;47.422;9.656;2022-08-19T07:42:07;17.20;99.90
4366;DHT22;2196;47.422;9.656;2022-08-19T07:44:35;17.30;99.90
4366;DHT22;2196;47.422;9.656;2022-08-19T07:47:04;17.30;99.90
4366;DHT22;2196;47.422;9.656;2022-08-19T07:49:33;17.30;99.90
4366;DHT22;2196;47.422;9.656;2022-08-19T07:52:06;17.20;99.90
4366;DHT22;2196;47.422;9.656;2022-08-19T07:54:35;17.20;99.90
4366;DHT22;2196;47.422;9.656;2022-08-19T07:57:04;17.10;99.90
4366;DHT22;2196;47.422;9.656;2022-08-19T07:59:31;17.10;99.90
4366;DHT22;2196;47.422;9.656;2022-08-19T08:01:59;17.20;99.90
4366;DHT22;2196;47.422;9.656;2022-08-19T08:04:26;17.20;99.90
4366;DHT22;2196;47.422;9.656;2022-08-19T08:07:13;17.20;99.90
4366;DHT22;2196;47.422;9.656;2022-08-19T08:09:58;17.20;99.90
4366;DHT22;2196;47.422;9.656;2022-08-19T08:12:27;17.20;99.90
4366;DHT22;2196;47.422;9.656;2022-08-19T08:14:57;17.10;99.90
4366;DHT22;2196;47.422;9.656;2022-08-19T08:17:26;17.20;99.90
4366;DHT22;2196;47.422;9.656;2022-08-19T08:19:54;17.20;99.90
4366;DHT22;2196;47.422;9.656;2022-08-19T08:22:24;17.10;99.90
4366;DHT22;2196;47.422;9.656;2022-08-19T08:25:13;17.20;99.90
4366;DHT22;2196;47.422;9.656;2022-08-19T08:27:42;17.10;99.90
4366;DHT22;2196;47.422;9.656;2022-08-19T08:30:11;17.10;99.90
4366;DHT22;2196;47.422;9.656;2022-08-19T08:32:40;17.20;99.90
4366;DHT22;2196;47.422;9.656;2022-08-19T08:35:11;17.10;99.90
4366;DHT22;2196;47.422;9.656;2022-08-19T08:37:40;17.20;99.90
4366;DHT22;2196;47.422;9.656;2022-08-19T08:40:14;17.20;99.90
4366;DHT22;2196;47.422;9.656;2022-08-19T08:42:49;17.20;99.90
4366;DHT22;2196;47.422;9.656;2022-08-19T08:45:18;17.20;99.90
4366;DHT22;2196;47.422;9.656;2022-08-19T08:47:49;17.20;99.90
4366;DHT22;2196;47.422;9.656;2022-08-19T08:50:21;17.20;99.90
4366;DHT22;2196;47.422;9.656;2022-08-19T08:52:53;17.20;99.90
4366;DHT22;2196;47.422;9.656;2022-08-19T08:55:24;17.20;99.90
4366;DHT22;2196;47.422;9.656;2022-08-19T08:57:54;17.20;99.90
4366;DHT22;2196;47.422;9.656;2022-08-19T09:00:25;17.20;99.90
4366;DHT22;2196;47.422;9.656;2022-08-19T09:02:52;17.20;99.90
4366;DHT22;2196;47.422;9.656;2022-08-19T09:05:20;17.20;99.90
4366;DHT22;2196;47.422;9.656;2022-08-19T09:07:57;17.20;99.90
4366;DHT22;2196;47.422;9.656;2022-08-19T09:10:34;17.20;99.90
4366;DHT22;2196;47.422;9.656;2022-08-19T09:13:08;17.20;99.90
4366;DHT22;2196;47.422;9.656;2022-08-19T09:15:43;17.20;99.90
4366;DHT22;2196;47.422;9.656;2022-08-19T09:18:12;17.20;99.90
4366;DHT22;2196;47.422;9.656;2022-08-19T09:20:39;17.20;99.90
4366;DHT22;2196;47.422;9.656;2022-08-19T09:23:10;17.30;99.90
4366;DHT22;2196;47.422;9.656;2022-08-19T09:25:37;17.40;99.90
4366;DHT22;2196;47.422;9.656;2022-08-19T09:28:06;17.40;99.90
4366;DHT22;2196;47.422;9.656;2022-08-19T09:30:39;17.40;99.90
4366;DHT22;2196;47.422;9.656;2022-08-19T09:33:06;17.40;99.90
4366;DHT22;2196;47.422;9.656;2022-08-19T09:35:33;17.40;99.90
4366;DHT22;2196;47.422;9.656;2022-08-19T09:38:01;17.40;99.90
4366;DHT22;2196;47.422;9.656;2022-08-19T09:40:30;17.40;99.90
4366;DHT22;2196;47.422;9.656;2022-08-19T09:42:57;17.30;99.90
4366;DHT22;2196;47.422;9.656;2022-08-19T09:45:28;17.30;99.90
4366;DHT22;2196;47.422;9.656;2022-08-19T09:47:56;17.20;99.90
4366;DHT22;2196;47.422;9.656;2022-08-19T09:50:23;17.20;99.90
4366;DHT22;2196;47.422;9.656;2022-08-19T09:52:51;17.10;99.90
4366;DHT22;2196;47.422;9.656;2022-08-19T09:55:19;17.20;99.90
4366;DHT22;2196;47.422;9.656;2022-08-19T09:57:47;17.10;99.90
4366;DHT22;2196;47.422;9.656;2022-08-19T10:00:14;17.20;99.90
4366;DHT22;2196;47.422;9.656;2022-08-19T10:02:41;17.10;99.90
4366;DHT22;2196;47.422;9.656;2022-08-19T10:05:08;17.10;99.90
4366;DHT22;2196;47.422;9.656;2022-08-19T10:07:53;17.10;99.90
4366;DHT22;2196;47.422;9.656;2022-08-19T10:10:20;17.20;99.90
4366;DHT22;2196;47.422;9.656;2022-08-19T10:12:49;17.20;99.90
4366;DHT22;2196;47.422;9.656;2022-08-19T10:15:16;17.10;99.90
4366;DHT22;2196;47.422;9.656;2022-08-19T10:17:46;17.20;99.90
4366;DHT22;2196;47.422;9.656;2022-08-19T10:20:13;17.20;99.90
4366;DHT22;2196;47.422;9.656;2022-08-19T10:22:40;17.20;99.90
4366;DHT22;2196;47.422;9.656;2022-08-19T10:25:09;17.20;99.90
4366;DHT22;2196;47.422;9.656;2022-08-19T10:27:35;17.10;99.90
4366;DHT22;2196;47.422;9.656;2022-08-19T10:30:05;17.10;99.90
4366;DHT22;2196;47.422;9.656;2022-08-19T10:32:33;17.20;99.90
4366;DHT22;2196;47.422;9.656;2022-08-19T10:35:00;17.10;99.90
4366;DHT22;2196;47.422;9.656;2022-08-19T10:37:27;17.10;99.90
4366;DHT22;2196;47.422;9.656;2022-08-19T10:39:56;17.00;99.90
4366;DHT22;2196;47.422;9.656;2022-08-19T10:42:23;17.00;99.90
4366;DHT22;2196;47.422;9.656;2022-08-19T10:44:50;17.10;99.90
4366;DHT22;2196;47.422;9.656;2022-08-19T10:47:18;17.00;99.90
4366;DHT22;2196;47.422;9.656;2022-08-19T10:49:48;17.00;99.90
4366;DHT22;2196;47.422;9.656;2022-08-19T10:52:33;17.00;99.90
4366;DHT22;2196;47.422;9.656;2022-08-19T10:55:00;17.00;99.90
4366;DHT22;2196;47.422;9.656;2022-08-19T10:57:44;17.00;99.90
4366;DHT22;2196;47.422;9.656;2022-08-19T11:00:12;17.00;99.90
4366;DHT22;2196;47.422;9.656;2022-08-19T11:02:41;17.00;99.90
4366;DHT22;2196;47.422;9.656;2022-08-19T11:05:08;17.00;99.90
4366;DHT22;2196;47.422;9.656;2022-08-19T11:07:36;17.00;99.90
4366;DHT22;2196;47.422;9.656;2022-08-19T11:10:05;17.10;99.90
4366;DHT22;2196;47.422;9.656;2022-08-19T11:12:33;17.00;99.90
4366;DHT22;2196;47.422;9.656;2022-08-19T11:15:00;17.00;99.90
4366;DHT22;2196;47.422;9.656;2022-08-19T11:17:27;17.00;99.90
4366;DHT22;2196;47.422;9.656;2022-08-19T11:19:58;16.90;99.90
4366;DHT22;2196;47.422;9.656;2022-08-19T11:22:29;16.90;99.90
4366;DHT22;2196;47.422;9.656;2022-08-19T11:24:56;17.00;99.90
4366;DHT22;2196;47.422;9.656;2022-08-19T11:27:23;17.00;99.90
4366;DHT22;2196;47.422;9.656;2022-08-19T11:29:50;17.00;99.90
4366;DHT22;2196;47.422;9.656;2022-08-19T11:32:18;16.90;99.90
4366;DHT22;2196;47.422;9.656;2022-08-19T11:34:45;16.90;99.90
4366;DHT22;2196;47.422;9.656;2022-08-19T11:37:13;16.90;99.90
4366;DHT22;2196;47.422;9.656;2022-08-19T11:39:41;16.80;99.90
4366;DHT22;2196;47.422;9.656;2022-08-19T11:42:08;16.80;99.90
4366;DHT22;2196;47.422;9.656;2022-08-19T11:44:49;16.80;99.90
4366;DHT22;2196;47.422;9.656;2022-08-19T11:47:16;16.70;99.90
4366;DHT22;2196;47.422;9.656;2022-08-19T11:49:43;16.70;99.90
4366;DHT22;2196;47.422;9.656;2022-08-19T11:52:13;16.60;99.90
4366;DHT22;2196;47.422;9.656;2022-08-19T11:54:40;16.60;99.90
4366;DHT22;2196;47.422;9.656;2022-08-19T11:57:07;16.60;99.90
4366;DHT22;2196;47.422;9.656;2022-08-19T11:59:34;16.60;99.90
4366;DHT22;2196;47.422;9.656;2022-08-19T12:02:01;16.60;99.90
4366;DHT22;2196;47.422;9.656;2022-08-19T12:04:29;16.60;99.90
4366;DHT22;2196;47.422;9.656;2022-08-19T12:06:55;16.60;99.90
4366;DHT22;2196;47.422;9.656;2022-08-19T12:09:24;16.60;99.90
4366;DHT22;2196;47.422;9.656;2022-08-19T12:11:51;16.60;99.90
4366;DHT22;2196;47.422;9.656;2022-08-19T12:14:18;16.70;99.90
4366;DHT22;2196;47.422;9.656;2022-08-19T12:16:45;16.60;99.90
4366;DHT22;2196;47.422;9.656;2022-08-19T12:19:15;16.60;99.90
4366;DHT22;2196;47.422;9.656;2022-08-19T12:21:43;16.60;99.90
4366;DHT22;2196;47.422;9.656;2022-08-19T12:24:10;16.60;99.90
4366;DHT22;2196;47.422;9.656;2022-08-19T12:26:39;16.60;99.90
4366;DHT22;2196;47.422;9.656;2022-08-19T12:29:06;16.60;99.90
4366;DHT22;2196;47.422;9.656;2022-08-19T12:31:34;16.60;99.90
4366;DHT22;2196;47.422;9.656;2022-08-19T12:34:01;16.60;99.90
4366;DHT22;2196;47.422;9.656;2022-08-19T12:36:28;16.70;99.90
4366;DHT22;2196;47.422;9.656;2022-08-19T12:38:58;16.70;99.90
4366;DHT22;2196;47.422;9.656;2022-08-19T12:41:25;16.70;99.90
4366;DHT22;2196;47.422;9.656;2022-08-19T12:43:53;16.70;99.90
4366;DHT22;2196;47.422;9.656;2022-08-19T12:46:21;16.70;99.90
4366;DHT22;2196;47.422;9.656;2022-08-19T12:48:48;16.70;99.90
4366;DHT22;2196;47.422;9.656;2022-08-19T12:51:17;16.80;99.90
4366;DHT22;2196;47.422;9.656;2022-08-19T12:53:45;16.80;99.90
4366;DHT22;2196;47.422;9.656;2022-08-19T12:56:12;16.80;99.90
4366;DHT22;2196;47.422;9.656;2022-08-19T12:58:41;16.70;99.90
4366;DHT22;2196;47.422;9.656;2022-08-19T13:01:12;16.70;99.90
4366;DHT22;2196;47.422;9.656;2022-08-19T13:03:40;16.70;99.90
4366;DHT22;2196;47.422;9.656;2022-08-19T13:06:09;16.70;99.90
4366;DHT22;2196;47.422;9.656;2022-08-19T13:08:37;16.70;99.90
4366;DHT22;2196;47.422;9.656;2022-08-19T13:11:09;16.70;99.90
4366;DHT22;2196;47.422;9.656;2022-08-19T13:13:38;16.60;99.90
4366;DHT22;2196;47.422;9.656;2022-08-19T13:16:07;16.60;99.90
4366;DHT22;2196;47.422;9.656;2022-08-19T13:18:35;16.60;99.90
4366;DHT22;2196;47.422;9.656;2022-08-19T13:21:03;16.60;99.90
4366;DHT22;2196;47.422;9.656;2022-08-19T13:23:31;16.60;99.90
4366;DHT22;2196;47.422;9.656;2022-08-19T13:25:58;16.70;99.90
4366;DHT22;2196;47.422;9.656;2022-08-19T13:28:25;16.70;99.90
4366;DHT22;2196;47.422;9.656;2022-08-19T13:31:15;16.60;99.90
4366;DHT22;2196;47.422;9.656;2022-08-19T13:34:00;16.70;99.90
4366;DHT22;2196;47.422;9.656;2022-08-19T13:36:27;16.60;99.90
4366;DHT22;2196;47.422;9.656;2022-08-19T13:38:55;16.60;99.90
4366;DHT22;2196;47.422;9.656;2022-08-19T13:41:22;16.60;99.90
4366;DHT22;2196;47.422;9.656;2022-08-19T13:43:49;16.60;99.90
4366;DHT22;2196;47.422;9.656;2022-08-19T13:46:16;16.50;99.90
4366;DHT22;2196;47.422;9.656;2022-08-19T13:48:43;16.50;99.90
4366;DHT22;2196;47.422;9.656;2022-08-19T13:51:11;16.50;99.90
4366;DHT22;2196;47.422;9.656;2022-08-19T13:53:39;16.50;99.90
4366;DHT22;2196;47.422;9.656;2022-08-19T13:56:09;16.60;99.90
4366;DHT22;2196;47.422;9.656;2022-08-19T13:58:36;16.60;99.90
4366;DHT22;2196;47.422;9.656;2022-08-19T14:01:03;16.60;99.90
4366;DHT22;2196;47.422;9.656;2022-08-19T14:03:31;16.60;99.90
4366;DHT22;2196;47.422;9.656;2022-08-19T14:05:58;16.70;99.90
4366;DHT22;2196;47.422;9.656;2022-08-19T14:08:27;16.70;99.90
4366;DHT22;2196;47.422;9.656;2022-08-19T14:10:55;16.60;99.90
4366;DHT22;2196;47.422;9.656;2022-08-19T14:13:23;16.70;99.90
4366;DHT22;2196;47.422;9.656;2022-08-19T14:15:50;16.70;99.90
4366;DHT22;2196;47.422;9.656;2022-08-19T14:18:18;16.70;99.90
4366;DHT22;2196;47.422;9.656;2022-08-19T14:20:45;16.60;99.90
4366;DHT22;2196;47.422;9.656;2022-08-19T14:23:12;16.60;99.90
4366;DHT22;2196;47.422;9.656;2022-08-19T14:25:40;16.60;99.90
4366;DHT22;2196;47.422;9.656;2022-08-19T14:28:07;16.60;99.90
4366;DHT22;2196;47.422;9.656;2022-08-19T14:30:35;16.50;99.90
4366;DHT22;2196;47.422;9.656;2022-08-19T14:33:06;16.60;99.90
4366;DHT22;2196;47.422;9.656;2022-08-19T14:35:35;16.50;99.90
4366;DHT22;2196;47.422;9.656;2022-08-19T14:38:02;16.50;99.90
4366;DHT22;2196;47.422;9.656;2022-08-19T14:40:31;16.50;99.90
4366;DHT22;2196;47.422;9.656;2022-08-19T14:43:03;16.50;99.90
4366;DHT22;2196;47.422;9.656;2022-08-19T14:45:32;16.50;99.90
4366;DHT22;2196;47.422;9.656;2022-08-19T14:48:01;16.60;99.90
4366;DHT22;2196;47.422;9.656;2022-08-19T14:50:28;16.50;99.90
4366;DHT22;2196;47.422;9.656;2022-08-19T14:53:05;16.60;99.90
4366;DHT22;2196;47.422;9.656;2022-08-19T14:55:33;16.50;99.90
4366;DHT22;2196;47.422;9.656;2022-08-19T14:58:04;16.60;99.90
4366;DHT22;2196;47.422;9.656;2022-08-19T15:00:31;16.50;99.90
4366;DHT22;2196;47.422;9.656;2022-08-19T15:02:58;16.60;99.90
4366;DHT22;2196;47.422;9.656;2022-08-19T15:05:28;16.60;99.90
4366;DHT22;2196;47.422;9.656;2022-08-19T15:07:55;16.60;99.90
4366;DHT22;2196;47.422;9.656;2022-08-19T15:10:23;16.60;99.90
4366;DHT22;2196;47.422;9.656;2022-08-19T15:12:50;16.70;99.90
4366;DHT22;2196;47.422;9.656;2022-08-19T15:15:20;16.70;99.90
4366;DHT22;2196;47.422;9.656;2022-08-19T15:17:48;16.70;99.90
4366;DHT22;2196;47.422;9.656;2022-08-19T15:20:18;16.70;99.90
4366;DHT22;2196;47.422;9.656;2022-08-19T15:22:46;16.70;99.90
4366;DHT22;2196;47.422;9.656;2022-08-19T15:25:15;16.60;99.90
4366;DHT22;2196;47.422;9.656;2022-08-19T15:27:44;16.60;99.90
4366;DHT22;2196;47.422;9.656;2022-08-19T15:30:17;16.60;99.90
4366;DHT22;2196;47.422;9.656;2022-08-19T15:32:46;16.60;99.90
4366;DHT22;2196;47.422;9.656;2022-08-19T15:35:13;16.60;99.90
4366;DHT22;2196;47.422;9.656;2022-08-19T15:37:40;16.70;99.90
4366;DHT22;2196;47.422;9.656;2022-08-19T15:40:08;16.70;99.90
4366;DHT22;2196;47.422;9.656;2022-08-19T15:42:36;16.70;99.90
4366;DHT22;2196;47.422;9.656;2022-08-19T15:45:04;16.70;99.90
4366;DHT22;2196;47.422;9.656;2022-08-19T15:47:31;16.70;99.90
4366;DHT22;2196;47.422;9.656;2022-08-19T15:49:59;16.70;99.90
4366;DHT22;2196;47.422;9.656;2022-08-19T15:52:26;16.80;99.90
4366;DHT22;2196;47.422;9.656;2022-08-19T15:54:53;16.70;99.90
4366;DHT22;2196;47.422;9.656;2022-08-19T15:57:20;16.70;99.90
4366;DHT22;2196;47.422;9.656;2022-08-19T16:00:06;16.70;99.90
4366;DHT22;2196;47.422;9.656;2022-08-19T16:02:51;16.70;99.90
4366;DHT22;2196;47.422;9.656;2022-08-19T16:05:36;16.70;99.90
4366;DHT22;2196;47.422;9.656;2022-08-19T16:08:20;16.70;99.90
4366;DHT22;2196;47.422;9.656;2022-08-19T16:10:47;16.70;99.90
4366;DHT22;2196;47.422;9.656;2022-08-19T16:13:14;16.70;99.90